Time;durP1;ratioP1;P1;durP2;ratioP2;P2;SDS_P1;SDS_P2;PMS_P1;PMS_P2;Temp;Humidity;BMP_temperature;BMP_pressure;BME280_temperature;BME280_humidity;BME280_pressure;Samples;Min_cycle;Max_cycle;Signal;HPM_P1;HPM_P2
2023/10/07 00:01:52;;;;;;;9.00;3.15;;;;;;;12.99;63.10;94849.91;5038012;28;20017;-74
2023/10/07 00:04:18;;;;;;;12.18;2.88;;;;;;;13.01;62.72;94858.41;5021334;28;20022;-74
2023/10/07 00:06:45;;;;;;;7.40;3.47;;;;;;;13.00;63.04;94844.22;5022416;28;20080;-75
2023/10/07 00:09:12;;;;;;;7.75;3.05;;;;;;;13.01;62.85;94842.34;5022667;28;20388;-74
2023/10/07 00:11:38;;;;;;;5.65;2.80;;;;;;;13.01;62.79;94845.81;5026648;28;20030;-74
2023/10/07 00:14:09;;;;;;;6.15;2.58;;;;;;;12.94;63.08;94842.75;5025508;28;20073;-74
2023/10/07 00:16:36;;;;;;;12.90;4.22;;;;;;;12.94;63.07;94831.28;5026276;28;20025;-74
2023/10/07 00:19:03;;;;;;;9.10;3.20;;;;;;;12.91;63.18;94835.34;5026386;28;20096;-74
2023/10/07 00:21:52;;;;;;;12.88;3.83;;;;;;;12.88;63.50;94837.84;5026311;28;20026;-74
2023/10/07 00:24:16;;;;;;;11.02;3.53;;;;;;;12.84;63.67;94832.28;5026144;28;20025;-74
2023/10/07 00:26:43;;;;;;;7.95;3.30;;;;;;;12.81;63.94;94827.56;5026311;28;20072;-74
2023/10/07 00:29:12;;;;;;;9.23;2.97;;;;;;;12.78;64.05;94823.63;5026117;28;20201;-74
2023/10/07 00:31:40;;;;;;;7.68;3.28;;;;;;;12.80;63.95;94820.63;5024838;28;20031;-73
2023/10/07 00:34:08;;;;;;;6.70;3.17;;;;;;;12.79;63.97;94827.09;5024930;28;20259;-75
2023/10/07 00:39:07;;;;;;;12.55;3.85;;;;;;;12.72;64.37;94818.66;5024179;28;20116;-75
2023/10/07 00:41:51;;;;;;;11.70;3.47;;;;;;;12.70;64.44;94815.50;5025460;28;20057;-75
2023/10/07 00:44:39;;;;;;;7.05;3.35;;;;;;;12.69;64.29;94811.25;5025614;28;20056;-75
2023/10/07 00:49:40;;;;;;;9.48;3.58;;;;;;;12.68;64.55;94796.28;5025859;28;20021;-75
2023/10/07 00:52:12;;;;;;;8.43;3.22;;;;;;;12.59;63.97;94798.91;5025849;28;20034;-75
2023/10/07 00:54:51;;;;;;;8.55;3.50;;;;;;;12.55;63.86;94803.28;5025786;28;20026;-74
2023/10/07 00:57:24;;;;;;;5.90;2.67;;;;;;;12.51;64.03;94803.09;5025488;28;20072;-74
2023/10/07 00:59:51;;;;;;;5.75;3.08;;;;;;;12.45;64.15;94799.72;5025622;28;20323;-74
2023/10/07 01:02:30;;;;;;;5.20;2.45;;;;;;;12.45;64.35;94796.28;5025761;28;20260;-74
2023/10/07 01:05:09;;;;;;;7.07;3.00;;;;;;;12.41;64.46;94795.28;5025564;28;20030;-75
2023/10/07 01:07:35;;;;;;;7.30;2.42;;;;;;;12.35;64.28;94804.50;5025621;28;20032;-74
2023/10/07 01:10:13;;;;;;;6.88;2.88;;;;;;;12.30;64.78;94794.72;5025843;28;20034;-74
2023/10/07 01:12:39;;;;;;;6.88;2.70;;;;;;;12.28;64.84;94796.13;5025474;28;20030;-74
2023/10/07 01:15:28;;;;;;;6.35;3.10;;;;;;;12.23;64.99;94792.47;5025492;28;20083;-72
2023/10/07 01:18:04;;;;;;;6.80;3.10;;;;;;;12.16;64.94;94788.63;5024049;28;20076;-73
2023/10/07 01:20:48;;;;;;;8.43;2.60;;;;;;;12.16;65.08;94793.97;5024931;28;20378;-74
2023/10/07 01:23:18;;;;;;;7.40;3.13;;;;;;;12.11;65.50;94791.38;5024848;28;20025;-72
2023/10/07 01:25:44;;;;;;;9.80;3.88;;;;;;;12.13;65.77;94802.56;5025013;28;20064;-75
2023/10/07 01:28:14;;;;;;;7.35;3.38;;;;;;;12.12;65.79;94793.00;5025044;28;20204;-73
2023/10/07 01:30:47;;;;;;;5.65;2.83;;;;;;;12.11;65.79;94800.22;5025065;28;20021;-72
2023/10/07 01:36:05;;;;;;;10.27;3.10;;;;;;;12.18;65.78;94808.59;5025243;28;20101;-72
2023/10/07 01:38:28;;;;;;;10.25;3.42;;;;;;;12.19;65.64;94802.19;5024742;28;20061;-72
2023/10/07 01:40:55;;;;;;;10.40;2.83;;;;;;;12.19;65.69;94802.19;5024634;28;20042;-73
2023/10/07 01:43:21;;;;;;;7.00;2.58;;;;;;;12.19;65.72;94802.19;5024856;28;20040;-72
2023/10/07 01:45:52;;;;;;;6.80;2.92;;;;;;;12.18;65.74;94800.59;5025008;28;20092;-72
2023/10/07 01:48:18;;;;;;;7.10;3.67;;;;;;;12.16;65.87;94802.78;5024675;28;20018;-72
2023/10/07 01:50:45;;;;;;;8.27;3.65;;;;;;;12.11;66.06;94800.22;5024392;28;20025;-72
2023/10/07 01:53:11;;;;;;;7.25;3.22;;;;;;;12.08;66.21;94797.34;5024460;28;20018;-73
2023/10/07 01:55:43;;;;;;;8.95;3.35;;;;;;;12.04;66.41;94800.59;5024785;28;20117;-73
2023/10/07 01:58:13;;;;;;;7.10;2.97;;;;;;;12.00;66.71;94798.84;5024421;28;20029;-73
2023/10/07 02:00:46;;;;;;;7.20;2.67;;;;;;;11.93;66.88;94791.22;5024439;28;20220;-73
2023/10/07 02:03:25;;;;;;;8.15;3.53;;;;;;;11.89;67.13;94787.56;5024370;28;20033;-73
2023/10/07 02:05:51;;;;;;;8.32;3.42;;;;;;;11.84;67.45;94791.13;5024205;28;20034;-73
2023/10/07 02:08:22;;;;;;;7.22;3.13;;;;;;;11.78;67.44;94792.28;5024240;28;20026;-73
2023/10/07 02:10:57;;;;;;;7.80;3.30;;;;;;;11.70;67.91;94779.63;5024186;28;20022;-73
2023/10/07 02:13:24;;;;;;;10.40;3.30;;;;;;;11.68;68.15;94781.00;5024127;28;20037;-73
2023/10/07 02:15:51;;;;;;;7.40;3.33;;;;;;;11.64;68.18;94776.28;5024033;28;20068;-73
2023/10/07 02:18:18;;;;;;;13.98;3.85;;;;;;;11.59;68.66;94776.38;5023868;28;20416;-73
2023/10/07 02:20:49;;;;;;;9.05;3.38;;;;;;;11.55;68.85;94777.25;5023995;28;20040;-73
2023/10/07 02:23:35;;;;;;;10.07;3.37;;;;;;;11.52;69.01;94769.81;5024142;28;20027;-75
2023/10/07 02:26:01;;;;;;;6.38;3.80;;;;;;;11.47;69.08;94772.59;5023703;28;20041;-75
2023/10/07 02:28:33;;;;;;;9.70;3.67;;;;;;;11.42;69.36;94774.28;5024211;28;20028;-74
2023/10/07 02:31:01;;;;;;;9.63;4.07;;;;;;;11.38;69.47;94773.28;5022901;28;20080;-73
2023/10/07 02:33:41;;;;;;;11.40;4.50;;;;;;;11.35;69.69;94776.53;5023593;28;20029;-74
2023/10/07 02:36:10;;;;;;;6.75;3.28;;;;;;;11.28;69.89;94770.81;5023953;28;20093;-74
2023/10/07 02:38:38;;;;;;;10.32;4.15;;;;;;;11.24;69.83;94770.59;5023820;28;20057;-74
2023/10/07 02:41:08;;;;;;;8.70;3.35;;;;;;;11.22;70.13;94772.78;5023807;28;20207;-74
2023/10/07 02:43:42;;;;;;;8.63;3.85;;;;;;;11.18;70.30;94782.44;5023783;28;20021;-73
2023/10/07 02:46:08;;;;;;;10.75;3.40;;;;;;;11.15;70.08;94782.25;5023666;28;20044;-73
2023/10/07 02:48:38;;;;;;;8.32;3.08;;;;;;;11.12;70.34;94772.16;5023688;28;20022;-73
2023/10/07 02:51:06;;;;;;;10.43;3.50;;;;;;;11.06;70.44;94778.69;5023719;28;20061;-73
2023/10/07 02:53:35;;;;;;;10.55;3.90;;;;;;;11.03;70.58;94772.03;5023671;28;20283;-74
2023/10/07 02:56:03;;;;;;;11.48;3.65;;;;;;;10.97;70.75;94771.34;5023741;28;20018;-74
2023/10/07 02:58:48;;;;;;;7.97;3.33;;;;;;;10.95;70.74;94770.03;5038654;28;20045;-74
2023/10/07 03:01:18;;;;;;;10.80;3.38;;;;;;;10.89;70.88;94774.69;5023380;28;20036;-74
2023/10/07 03:03:48;;;;;;;10.95;3.58;;;;;;;10.86;71.12;94775.25;5022265;28;20052;-74
2023/10/07 03:06:17;;;;;;;11.82;3.58;;;;;;;10.85;71.13;94771.03;5023425;28;20320;-73
2023/10/07 03:11:22;;;;;;;12.70;3.90;;;;;;;10.80;71.34;94776.44;5023264;28;20028;-74
2023/10/07 03:13:49;;;;;;;11.27;3.50;;;;;;;10.79;71.46;94774.84;5023277;28;20228;-74
2023/10/07 03:21:54;;;;;;;8.55;3.55;;;;;;;10.70;71.79;94784.59;5023131;28;20037;-74
2023/10/07 03:24:29;;;;;;;7.93;3.13;;;;;;;10.67;72.12;94783.31;5021905;28;20324;-73
2023/10/07 03:27:05;;;;;;;6.97;3.08;;;;;;;10.61;71.91;94782.59;5023219;28;20018;-74
2023/10/07 03:29:36;;;;;;;6.53;3.28;;;;;;;10.58;71.93;94788.50;5021689;28;20342;-73
2023/10/07 03:32:07;;;;;;;11.45;3.55;;;;;;;10.54;71.51;94790.16;5022933;28;20026;-73
2023/10/07 03:34:34;;;;;;;6.85;3.63;;;;;;;10.52;72.15;94783.53;5022983;28;20030;-73
2023/10/07 03:42:18;;;;;;;12.25;4.70;;;;;;;10.38;73.22;94778.13;5022904;28;20446;-74
2023/10/07 03:44:46;;;;;;;10.52;4.18;;;;;;;10.36;73.24;94789.09;5022235;28;20025;-74
2023/10/07 03:47:12;;;;;;;11.55;4.63;;;;;;;10.36;73.24;94786.44;5022706;28;20033;-73
2023/10/07 03:49:40;;;;;;;9.88;4.53;;;;;;;10.36;73.03;94778.44;5022748;28;20028;-73
2023/10/07 03:52:12;;;;;;;9.45;3.85;;;;;;;10.34;73.08;94782.44;5023023;28;20236;-73
2023/10/07 03:54:42;;;;;;;9.50;4.53;;;;;;;10.33;73.29;94779.00;5022843;28;20022;-73
2023/10/07 03:57:09;;;;;;;14.43;3.75;;;;;;;10.31;73.23;94786.47;5022778;28;20177;-73
2023/10/07 03:59:34;;;;;;;16.13;5.47;;;;;;;10.30;73.28;94782.25;5022815;28;20198;-73
2023/10/07 04:03:07;;;;;;;11.73;4.30;;;;;;;10.28;73.27;94784.38;5022661;28;20040;-73
2023/10/07 04:05:00;;;;;;;9.80;3.55;;;;;;;10.24;72.96;94784.16;5009416;28;20041;-73
2023/10/07 04:07:29;;;;;;;8.73;4.50;;;;;;;10.18;73.04;94801.28;5022541;28;20320;-73
2023/10/07 04:10:11;;;;;;;13.48;4.60;;;;;;;10.12;73.38;94801.66;5022441;28;20032;-73
2023/10/07 04:12:39;;;;;;;8.07;3.45;;;;;;;10.11;73.53;94792.84;5022836;28;20045;-73
2023/10/07 04:15:05;;;;;;;8.45;4.35;;;;;;;10.10;73.46;94803.81;5022486;28;20091;-73
2023/10/07 04:17:31;;;;;;;14.57;4.20;;;;;;;10.07;73.64;94799.81;5022529;28;20209;-74
2023/10/07 04:20:02;;;;;;;16.45;7.50;;;;;;;10.03;73.78;94802.28;5022375;28;20032;-73
2023/10/07 04:22:38;;;;;;;9.68;4.75;;;;;;;10.02;73.78;94803.34;5022549;28;20132;-73
2023/10/07 04:25:12;;;;;;;12.00;4.25;;;;;;;9.98;74.11;94801.56;5022656;28;20260;-73
2023/10/07 04:27:42;;;;;;;11.02;4.13;;;;;;;9.96;74.22;94788.53;5022619;28;20358;-73
2023/10/07 04:30:10;;;;;;;11.80;4.90;;;;;;;9.95;74.67;94791.47;5022639;28;20089;-74
2023/10/07 04:32:44;;;;;;;12.88;4.55;;;;;;;9.95;75.04;94780.81;5022509;28;20032;-73
2023/10/07 04:35:19;;;;;;;8.68;4.63;;;;;;;9.93;74.48;94783.78;5022154;28;20017;-74
2023/10/07 04:37:51;;;;;;;16.98;4.47;;;;;;;9.92;74.65;94779.53;5037416;28;20080;-73
2023/10/07 04:43:25;;;;;;;10.57;4.72;;;;;;;9.92;74.95;94792.03;5022299;28;20323;-74
2023/10/07 04:45:49;;;;;;;12.82;4.88;;;;;;;9.92;75.00;94787.50;5022224;28;20034;-74
2023/10/07 04:51:04;;;;;;;14.65;5.10;;;;;;;9.93;74.96;94783.78;5022315;28;20041;-74
2023/10/07 04:53:44;;;;;;;14.07;4.55;;;;;;;9.97;74.72;94783.97;5022227;28;20022;-74
2023/10/07 04:56:15;;;;;;;14.77;5.85;;;;;;;9.99;74.63;94789.81;5023914;28;20068;-73
2023/10/07 04:58:41;;;;;;;13.90;5.97;;;;;;;10.02;74.68;94795.38;5025522;28;20026;-73
2023/10/07 05:03:58;;;;;;;11.40;5.00;;;;;;;10.08;74.34;94801.44;5025644;28;20382;-73
2023/10/07 05:06:27;;;;;;;11.23;4.00;;;;;;;10.11;74.30;94795.50;5025440;28;20037;-73
2023/10/07 05:08:52;;;;;;;9.13;3.90;;;;;;;10.15;74.68;94799.19;5025523;28;20022;-73
2023/10/07 05:11:18;;;;;;;14.23;4.25;;;;;;;10.17;74.60;94805.03;5025234;28;20137;-75
2023/10/07 05:13:45;;;;;;;10.57;5.05;;;;;;;10.23;74.65;94809.19;5025348;28;20044;-74
2023/10/07 05:16:14;;;;;;;19.52;5.10;;;;;;;10.27;74.71;94804.09;5025355;28;20013;-74
2023/10/07 05:18:42;;;;;;;8.13;4.07;;;;;;;10.32;74.57;94795.25;5025085;28;20018;-73
2023/10/07 05:21:08;;;;;;;10.65;4.95;;;;;;;10.38;74.47;94805.59;5025213;28;20061;-73
2023/10/07 05:23:34;;;;;;;18.65;4.60;;;;;;;10.42;74.33;94813.78;5025221;28;20022;-73
2023/10/07 05:26:03;;;;;;;10.43;4.70;;;;;;;10.48;74.15;94823.28;5025165;28;20028;-73
2023/10/07 05:28:33;;;;;;;21.45;6.40;;;;;;;10.52;74.08;94819.00;5024967;28;20329;-73
2023/10/07 05:31:03;;;;;;;17.23;5.90;;;;;;;10.55;73.90;94829.06;5024992;28;20217;-73
2023/10/07 05:33:32;;;;;;;14.13;5.53;;;;;;;10.58;73.67;94825.00;5024917;28;20117;-73
2023/10/07 05:36:29;;;;;;;11.52;6.03;;;;;;;10.56;73.72;94828.00;5025048;28;20021;-73
2023/10/07 05:38:53;;;;;;;15.13;6.05;;;;;;;10.60;73.83;94823.66;5024413;28;20053;-73
2023/10/07 05:41:21;;;;;;;16.98;6.13;;;;;;;10.66;73.85;94826.25;5024831;28;20038;-73
2023/10/07 05:43:51;;;;;;;18.42;5.95;;;;;;;10.72;73.75;94831.19;5023520;28;20025;-73
2023/10/07 05:46:19;;;;;;;11.02;5.95;;;;;;;10.81;73.34;94834.03;5024638;28;20028;-74
2023/10/07 05:48:45;;;;;;;19.02;5.78;;;;;;;10.89;72.90;94836.03;5024757;28;20014;-73
2023/10/07 05:51:11;;;;;;;17.58;5.75;;;;;;;10.98;72.77;94836.16;5024811;28;20064;-73
2023/10/07 05:53:38;;;;;;;20.65;6.10;;;;;;;11.05;72.56;94841.91;5040180;28;20025;-73
2023/10/07 05:56:07;;;;;;;19.42;6.60;;;;;;;11.13;72.15;94843.09;5024702;28;20036;-73
2023/10/07 05:58:35;;;;;;;26.45;5.82;;;;;;;11.17;71.92;94839.59;5024359;28;20025;-73
2023/10/07 06:01:01;;;;;;;22.92;6.18;;;;;;;11.23;71.49;94834.94;5024268;28;20036;-73
2023/10/07 06:03:30;;;;;;;13.43;6.20;;;;;;;11.21;71.90;94850.44;5024431;28;20285;-74
2023/10/07 06:05:59;;;;;;;13.35;5.50;;;;;;;11.17;72.02;94846.78;5024356;28;20018;-74
2023/10/07 06:08:26;;;;;;;16.58;6.50;;;;;;;11.22;72.30;94849.38;5023787;28;20092;-73
2023/10/07 06:10:56;;;;;;;11.63;5.80;;;;;;;11.27;71.90;94843.94;5024224;28;20033;-73
2023/10/07 06:13:23;;;;;;;16.35;5.90;;;;;;;11.33;71.79;94844.66;5024285;28;20244;-73
2023/10/07 06:15:49;;;;;;;13.65;6.05;;;;;;;11.36;71.79;94847.53;5023918;28;20040;-73
2023/10/07 06:18:18;;;;;;;20.70;5.93;;;;;;;11.39;71.19;94838.94;5024112;28;20018;-73
2023/10/07 06:20:50;;;;;;;12.93;6.20;;;;;;;11.44;71.18;94833.50;5024042;28;20323;-73
2023/10/07 06:23:24;;;;;;;19.30;5.90;;;;;;;11.54;71.07;94832.53;5024070;28;20053;-73
2023/10/07 06:25:51;;;;;;;16.95;5.85;;;;;;;11.63;70.68;94846.00;5023971;28;20104;-74
2023/10/07 06:30:51;;;;;;;17.65;7.28;;;;;;;11.79;70.05;94841.16;5023869;28;20018;-74
2023/10/07 06:33:19;;;;;;;22.45;6.53;;;;;;;11.85;69.88;94842.66;5039259;28;20034;-74
2023/10/07 06:35:44;;;;;;;15.30;6.45;;;;;;;11.90;69.24;94849.81;5022726;28;20056;-74
2023/10/07 06:38:11;;;;;;;13.88;6.07;;;;;;;11.88;69.48;94838.59;5022392;28;20050;-73
2023/10/07 06:40:36;;;;;;;12.30;5.53;;;;;;;11.94;69.47;94848.13;5023906;28;20034;-74
2023/10/07 06:43:02;;;;;;;11.63;5.22;;;;;;;12.03;68.74;94854.38;5023826;28;20026;-73
2023/10/07 06:45:38;;;;;;;13.63;5.93;;;;;;;12.07;68.34;94857.22;5023593;28;20366;-73
2023/10/07 06:48:09;;;;;;;14.65;5.97;;;;;;;12.09;68.17;94855.84;5023767;28;20017;-74
2023/10/07 06:50:35;;;;;;;16.98;7.10;;;;;;;12.21;67.55;94864.16;5023754;28;20045;-73
2023/10/07 06:53:01;;;;;;;14.05;5.60;;;;;;;12.24;67.26;94857.41;5023316;28;20045;-73
2023/10/07 06:55:28;;;;;;;20.60;6.18;;;;;;;12.34;66.88;94861.75;5023468;28;20029;-74
2023/10/07 06:57:56;;;;;;;19.77;5.20;;;;;;;12.41;66.37;94854.91;5023402;28;20022;-73
2023/10/07 07:00:24;;;;;;;20.40;5.30;;;;;;;12.52;66.24;94852.81;5023390;28;20037;-73
2023/10/07 07:03:09;;;;;;;16.05;5.63;;;;;;;12.56;65.85;94837.75;5023442;28;20033;-73
2023/10/07 07:05:35;;;;;;;13.98;5.82;;;;;;;12.71;65.12;94849.97;5023623;28;20244;-73
2023/10/07 07:08:03;;;;;;;12.73;5.40;;;;;;;12.81;64.78;94838.28;5023416;28;20041;-74
2023/10/07 07:10:31;;;;;;;15.70;6.28;;;;;;;12.88;64.79;94838.63;5023114;28;20029;-73
2023/10/07 07:13:13;;;;;;;17.92;5.75;;;;;;;12.97;63.55;94836.03;5023310;28;20022;-74
2023/10/07 07:15:41;;;;;;;;;;;;;;;12.99;63.31;94836.53;5023610;28;20030;-74
2023/10/07 07:20:49;;;;;;;13.00;4.55;;;;;;;13.02;63.00;94839.34;5022562;28;20316;-75
2023/10/07 07:23:24;;;;;;;11.65;3.72;;;;;;;13.09;62.75;94835.47;5023178;28;20037;-74
2023/10/07 07:28:30;;;;;;;11.95;4.40;;;;;;;13.25;63.01;94840.16;5023348;28;20462;-74
2023/10/07 07:30:57;;;;;;;11.90;4.63;;;;;;;13.33;62.49;94844.03;5023129;28;20232;-74
2023/10/07 07:33:29;;;;;;;14.23;4.95;;;;;;;13.48;62.25;94840.16;5022925;28;20025;-74
2023/10/07 07:35:58;;;;;;;20.10;6.65;;;;;;;13.63;61.39;94841.66;5023012;28;20025;-74
2023/10/07 07:38:30;;;;;;;20.58;4.88;;;;;;;13.71;61.01;94835.53;5022834;28;20240;-74
2023/10/07 07:41:09;;;;;;;10.73;4.28;;;;;;;13.79;60.80;94840.16;5023023;28;20026;-74
2023/10/07 07:43:39;;;;;;;13.18;5.18;;;;;;;13.82;60.50;94839.53;5023018;28;20025;-74
2023/10/07 07:46:26;;;;;;;8.00;3.97;;;;;;;13.85;60.31;94833.53;5023153;28;20220;-74
2023/10/07 07:48:53;;;;;;;9.65;4.35;;;;;;;13.90;60.32;94831.81;5021556;28;20224;-73
2023/10/07 07:51:24;;;;;;;15.43;4.57;;;;;;;13.98;60.07;94825.72;5022847;28;20028;-74
2023/10/07 07:53:50;;;;;;;8.43;4.80;;;;;;;14.12;59.70;94826.38;5022784;28;20022;-76
2023/10/07 07:56:16;;;;;;;8.75;4.90;;;;;;;14.24;59.44;94817.75;5022741;28;20029;-74
2023/10/07 07:58:47;;;;;;;13.70;5.07;;;;;;;14.32;59.24;94821.53;5022433;28;20068;-74
2023/10/07 08:01:22;;;;;;;29.30;6.75;;;;;;;14.42;59.42;94813.97;5022822;28;20026;-75
2023/10/07 08:03:48;;;;;;;18.08;6.68;;;;;;;14.53;59.14;94814.50;5021604;28;20017;-75
2023/10/07 08:06:19;;;;;;;21.45;11.48;;;;;;;14.62;58.68;94812.63;5022633;28;20085;-74
2023/10/07 08:08:53;;;;;;;30.92;10.57;;;;;;;14.64;58.76;94807.72;5021721;28;20217;-74
2023/10/07 08:11:19;;;;;;;34.00;13.40;;;;;;;14.68;58.71;94820.53;5022491;28;20030;-74
2023/10/07 08:13:46;;;;;;;29.98;15.35;;;;;;;14.78;58.52;94825.56;5022592;28;20026;-74
2023/10/07 08:16:19;;;;;;;36.35;16.98;;;;;;;14.84;58.60;94835.06;5022417;28;20053;-75
2023/10/07 08:18:54;;;;;;;33.75;14.38;;;;;;;14.87;58.80;94818.31;5022337;28;20025;-74
2023/10/07 08:21:28;;;;;;;26.33;10.20;;;;;;;15.01;58.00;94824.28;5022384;28;20041;-74
2023/10/07 08:23:54;;;;;;;22.10;9.95;;;;;;;15.11;56.93;94823.19;5022201;28;20022;-74
2023/10/07 08:26:23;;;;;;;15.52;7.95;;;;;;;15.16;57.11;94824.91;5022479;28;20147;-75
2023/10/07 08:31:37;;;;;;;;;;;;;;;15.20;56.60;94820.47;5025083;28;20022;-77
2023/10/07 08:36:32;;;;;;;22.23;8.82;;;;;;;15.31;56.83;94810.22;5026409;28;20022;-77
2023/10/07 08:39:04;;;;;;;30.50;7.60;;;;;;;15.40;57.06;94809.06;5026064;28;20054;-77
2023/10/07 08:41:31;;;;;;;18.75;6.97;;;;;;;15.49;56.64;94805.56;5026138;28;20052;-77
2023/10/07 08:44:15;;;;;;;14.23;5.97;;;;;;;15.58;56.24;94791.00;5024874;28;20014;-77
2023/10/07 08:46:49;;;;;;;21.45;6.45;;;;;;;15.65;55.51;94795.84;5026224;28;20052;-77
2023/10/07 08:49:17;;;;;;;19.00;6.45;;;;;;;15.69;55.24;94796.78;5025774;28;20025;-77
2023/10/07 08:51:43;;;;;;;13.13;5.78;;;;;;;15.78;55.33;94786.84;5026336;28;20021;-77
2023/10/07 08:54:17;;;;;;;18.90;6.32;;;;;;;15.92;55.11;94785.84;5025834;28;20033;-77
2023/10/07 08:56:50;;;;;;;17.55;6.55;;;;;;;16.07;54.19;94790.66;5041036;28;20105;-78
2023/10/07 08:59:17;;;;;;;13.55;6.15;;;;;;;16.13;52.83;94792.03;5026106;28;20033;-77
2023/10/07 09:01:44;;;;;;;18.73;6.47;;;;;;;16.17;52.83;94786.81;5025751;28;20039;-78
2023/10/07 09:04:10;;;;;;;16.58;6.15;;;;;;;16.18;52.83;94783.81;5026187;28;20026;-77
2023/10/07 09:06:37;;;;;;;18.02;6.43;;;;;;;16.17;52.44;94789.50;5025931;28;20336;-78
2023/10/07 09:09:08;;;;;;;12.05;5.43;;;;;;;16.13;52.15;94775.91;5025609;28;20026;-78
2023/10/07 09:11:37;;;;;;;13.35;6.65;;;;;;;16.17;52.29;94774.13;5025864;28;20021;-77
2023/10/07 09:14:17;;;;;;;15.75;6.80;;;;;;;16.25;51.76;94778.69;5024590;28;20324;-78
2023/10/07 09:16:43;;;;;;;13.20;6.20;;;;;;;16.33;51.66;94773.56;5025505;28;20048;-77
2023/10/07 09:19:19;;;;;;;18.10;6.68;;;;;;;16.42;52.03;94775.09;5025569;28;20065;-77
2023/10/07 09:21:45;;;;;;;15.07;7.32;;;;;;;16.55;51.24;94775.16;5025455;28;20298;-77
2023/10/07 09:24:23;;;;;;;14.73;7.00;;;;;;;16.65;50.56;94775.56;5025148;28;20026;-77
2023/10/07 09:26:56;;;;;;;13.35;6.03;;;;;;;16.70;49.98;94776.47;5025122;28;20052;-77
2023/10/07 09:29:27;;;;;;;13.77;5.30;;;;;;;16.70;49.60;94787.25;5025179;28;20025;-77
2023/10/07 09:32:04;;;;;;;10.45;6.10;;;;;;;16.74;49.38;94783.56;5024992;28;20032;-78
2023/10/07 09:34:32;;;;;;;16.52;6.70;;;;;;;16.83;49.00;94772.72;5025013;28;20213;-78
2023/10/07 09:37:08;;;;;;;15.65;5.78;;;;;;;16.88;49.20;94772.53;5023774;28;20076;-78
2023/10/07 09:39:43;;;;;;;12.15;5.93;;;;;;;16.98;49.49;94774.81;5025000;28;20104;-78
2023/10/07 09:42:26;;;;;;;15.93;6.45;;;;;;;17.11;49.40;94766.78;5023936;28;20017;-78
2023/10/07 09:44:55;;;;;;;16.73;6.80;;;;;;;17.24;49.67;94769.19;5024908;28;20025;-78
2023/10/07 09:47:22;;;;;;;21.75;6.38;;;;;;;17.45;49.39;94765.63;5024735;28;20035;-78
2023/10/07 09:49:50;;;;;;;17.58;6.53;;;;;;;17.58;48.94;94761.81;5024732;28;20022;-78
2023/10/07 09:52:28;;;;;;;19.45;7.68;;;;;;;17.69;48.01;94756.81;5023568;28;20220;-77
2023/10/07 09:55:21;;;;;;;14.07;8.00;;;;;;;17.75;47.11;94754.69;5023514;28;20219;-78
2023/10/07 09:58:24;;;;;;;18.13;6.80;;;;;;;17.72;47.39;94745.34;5023401;28;20084;-76
2023/10/07 10:01:05;;;;;;;13.50;6.13;;;;;;;17.78;47.52;94745.91;5023136;28;20096;-77
2023/10/07 10:04:11;;;;;;;14.05;6.30;;;;;;;17.85;47.42;94738.09;5024271;28;20092;-77
2023/10/07 10:07:10;;;;;;;13.43;5.90;;;;;;;17.98;47.45;94744.25;5023072;28;20053;-77
2023/10/07 10:12:27;;;;;;;17.60;5.88;;;;;;;18.15;46.96;94733.19;5024289;28;20068;-78
2023/10/07 10:17:53;;;;;;;11.35;5.88;;;;;;;18.38;45.98;94722.72;5001104;28;20033;-77
2023/10/07 10:20:21;;;;;;;15.15;6.60;;;;;;;18.49;46.62;94717.63;5024280;28;20201;-77
2023/10/07 10:22:59;;;;;;;14.90;6.93;;;;;;;18.63;45.59;94703.75;5023987;28;20089;-78
2023/10/07 10:25:39;;;;;;;18.70;6.32;;;;;;;18.67;45.10;94704.63;5023981;28;20021;-78
2023/10/07 10:28:08;;;;;;;17.67;7.25;;;;;;;18.76;45.58;94693.66;5024107;28;20088;-77
2023/10/07 10:30:45;;;;;;;14.18;5.85;;;;;;;18.81;46.52;94688.84;5023994;28;20026;-78
2023/10/07 10:33:19;;;;;;;9.95;6.00;;;;;;;18.81;44.69;94686.16;5023772;28;20048;-77
2023/10/07 10:35:49;;;;;;;15.32;5.50;;;;;;;18.84;45.21;94676.56;5023864;28;20037;-78
2023/10/07 10:38:17;;;;;;;14.52;5.53;;;;;;;18.90;45.41;94672.47;5023588;28;20049;-77
2023/10/07 10:40:46;;;;;;;10.90;5.68;;;;;;;18.95;44.29;94668.72;5023659;28;20071;-77
2023/10/07 10:43:25;;;;;;;25.58;6.70;;;;;;;19.00;44.39;94660.38;5023698;28;20216;-78
2023/10/07 10:46:05;;;;;;;17.70;6.85;;;;;;;19.10;44.75;94656.38;5023605;28;20037;-77
2023/10/07 10:48:34;;;;;;;13.90;6.43;;;;;;;19.14;44.47;94649.94;5023385;28;20018;-78
2023/10/07 10:51:06;;;;;;;15.45;6.20;;;;;;;19.33;44.15;94646.53;5023719;28;20073;-78
2023/10/07 10:53:33;;;;;;;12.85;5.35;;;;;;;19.45;44.47;94640.25;5023359;28;20049;-77
2023/10/07 10:56:00;;;;;;;13.35;5.22;;;;;;;19.60;43.50;94642.16;5023381;28;20041;-77
2023/10/07 10:58:28;;;;;;;10.98;4.97;;;;;;;19.73;42.85;94632.03;5023081;28;20026;-77
2023/10/07 11:00:56;;;;;;;14.13;6.15;;;;;;;19.75;41.51;94629.00;5023389;28;20343;-78
2023/10/07 11:03:23;;;;;;;17.95;5.43;;;;;;;19.84;42.40;94630.38;5023359;28;20216;-77
2023/10/07 11:05:54;;;;;;;12.63;5.57;;;;;;;19.99;42.38;94634.16;5023170;28;20022;-77
2023/10/07 11:08:24;;;;;;;12.23;5.25;;;;;;;20.13;41.20;94622.88;5023266;28;20088;-77
2023/10/07 11:11:00;;;;;;;17.75;4.93;;;;;;;20.21;40.94;94616.47;5022033;28;20030;-79
2023/10/07 11:13:35;;;;;;;12.23;4.50;;;;;;;20.29;41.63;94611.16;5023312;28;20048;-81
2023/10/07 11:16:10;;;;;;;18.48;5.03;;;;;;;20.37;40.83;94605.56;5021930;28;20096;-80
2023/10/07 11:18:38;;;;;;;13.52;5.22;;;;;;;20.52;41.06;94603.13;5023224;28;20022;-79
2023/10/07 11:21:09;;;;;;;9.40;4.88;;;;;;;20.50;40.04;94598.06;5023209;28;20021;-81
2023/10/07 11:23:52;;;;;;;14.30;5.45;;;;;;;20.50;40.59;94598.06;5023188;28;20221;-78
2023/10/07 11:26:20;;;;;;;9.45;4.57;;;;;;;20.62;39.56;94595.22;5022787;28;20093;-78
2023/10/07 11:28:48;;;;;;;24.85;5.20;;;;;;;20.63;39.62;94593.28;5021348;28;20022;-79
2023/10/07 11:31:20;;;;;;;14.45;5.05;;;;;;;20.67;39.73;94577.88;5021442;28;20029;-78
2023/10/07 11:33:52;;;;;;;24.38;4.72;;;;;;;20.70;38.82;94585.31;5022827;28;20021;-79
2023/10/07 11:36:17;;;;;;;16.15;6.75;;;;;;;20.76;39.73;94580.34;5022855;28;20029;-79
2023/10/07 11:38:43;;;;;;;15.25;4.78;;;;;;;20.91;40.65;94576.00;5022635;28;20041;-78
2023/10/07 11:41:10;;;;;;;11.65;5.15;;;;;;;21.12;41.32;94572.84;5037926;28;20029;-79
2023/10/07 11:43:48;;;;;;;21.92;5.22;;;;;;;21.33;39.24;94573.19;5023025;28;20085;-79
2023/10/07 11:46:14;;;;;;;8.98;4.07;;;;;;;21.43;38.68;94567.16;5021494;28;20019;-77
2023/10/07 11:48:41;;;;;;;12.73;3.92;;;;;;;21.60;37.44;94554.22;5022577;28;20033;-78
2023/10/07 11:51:15;;;;;;;11.98;3.28;;;;;;;21.66;36.61;94552.75;5022763;28;20092;-78
2023/10/07 11:53:41;;;;;;;18.02;4.50;;;;;;;21.64;37.17;94544.22;5022857;28;20026;-77
2023/10/07 11:56:11;;;;;;;11.02;3.63;;;;;;;21.80;36.66;94554.91;5022556;28;20032;-77
2023/10/07 11:58:37;;;;;;;10.25;3.92;;;;;;;21.95;37.36;94551.19;5022590;28;20026;-78
2023/10/07 12:01:03;;;;;;;15.05;4.45;;;;;;;22.11;37.27;94540.16;5022740;28;20085;-79
2023/10/07 12:03:30;;;;;;;8.80;3.92;;;;;;;22.33;36.60;94546.63;5022621;28;20099;-79
2023/10/07 12:05:57;;;;;;;9.50;3.75;;;;;;;22.55;34.59;94544.13;5024139;28;20057;-77
2023/10/07 12:08:23;;;;;;;16.27;3.97;;;;;;;22.47;34.26;94537.06;5026198;28;20076;-76
2023/10/07 12:10:50;;;;;;;11.52;4.32;;;;;;;22.32;34.21;94536.91;5025292;28;20049;-76
2023/10/07 12:13:19;;;;;;;8.80;3.83;;;;;;;22.27;34.92;94536.47;5026413;28;20295;-77
2023/10/07 12:15:45;;;;;;;13.60;3.53;;;;;;;22.21;35.09;94531.34;5026213;28;20026;-78
2023/10/07 12:18:16;;;;;;;9.20;3.70;;;;;;;22.27;35.99;94520.16;5024961;28;20093;-77
2023/10/07 12:20:42;;;;;;;21.27;4.32;;;;;;;22.41;35.56;94525.78;5026287;28;20025;-76
2023/10/07 12:23:08;;;;;;;11.32;3.72;;;;;;;22.58;35.86;94517.00;5026489;28;20021;-76
2023/10/07 12:25:35;;;;;;;12.57;3.72;;;;;;;22.75;34.25;94517.56;5026405;28;20040;-76
2023/10/07 12:28:05;;;;;;;15.85;4.03;;;;;;;22.89;34.07;94514.19;5026075;28;20022;-76
2023/10/07 12:30:34;;;;;;;13.00;3.97;;;;;;;23.05;34.65;94514.72;5026107;28;20033;-76
2023/10/07 12:32:59;;;;;;;9.90;4.15;;;;;;;23.20;34.27;94508.25;5026016;28;20224;-77
2023/10/07 12:35:25;;;;;;;16.02;4.28;;;;;;;23.41;34.39;94510.31;5026037;28;20026;-79